sensor_id;sensor_type;location;lat;lon;timestamp;P1;durP1;ratioP1;P2;durP2;ratioP2
60700;SDS011;46541;49.894;10.886;2023-03-12T00:01:59;7.50;;;4.47;;
60700;SDS011;46541;49.894;10.886;2023-03-12T00:04:27;9.82;;;4.80;;
60700;SDS011;46541;49.894;10.886;2023-03-12T00:06:53;10.32;;;5.03;;
60700;SDS011;46541;49.894;10.886;2023-03-12T00:09:20;7.78;;;4.40;;
60700;SDS011;46541;49.894;10.886;2023-03-12T00:11:48;9.70;;;4.70;;
60700;SDS011;46541;49.894;10.886;2023-03-12T00:14:15;11.02;;;4.68;;
60700;SDS011;46541;49.894;10.886;2023-03-12T00:16:41;11.77;;;4.80;;
60700;SDS011;46541;49.894;10.886;2023-03-12T00:19:09;11.30;;;4.65;;
60700;SDS011;46541;49.894;10.886;2023-03-12T00:21:38;9.63;;;4.50;;
60700;SDS011;46541;49.894;10.886;2023-03-12T00:24:05;8.48;;;5.10;;
60700;SDS011;46541;49.894;10.886;2023-03-12T00:26:33;11.55;;;4.80;;
60700;SDS011;46541;49.894;10.886;2023-03-12T00:29:00;10.88;;;4.43;;
60700;SDS011;46541;49.894;10.886;2023-03-12T00:31:28;7.30;;;4.25;;
60700;SDS011;46541;49.894;10.886;2023-03-12T00:33:58;9.85;;;4.43;;
60700;SDS011;46541;49.894;10.886;2023-03-12T00:36:27;9.68;;;4.65;;
60700;SDS011;46541;49.894;10.886;2023-03-12T00:38:56;10.52;;;5.30;;
60700;SDS011;46541;49.894;10.886;2023-03-12T00:41:25;11.57;;;5.20;;
60700;SDS011;46541;49.894;10.886;2023-03-12T00:43:54;15.55;;;5.93;;
60700;SDS011;46541;49.894;10.886;2023-03-12T00:46:21;9.65;;;5.13;;
60700;SDS011;46541;49.894;10.886;2023-03-12T00:48:48;7.20;;;4.88;;
60700;SDS011;46541;49.894;10.886;2023-03-12T00:51:14;8.82;;;4.93;;
60700;SDS011;46541;49.894;10.886;2023-03-12T00:53:41;9.85;;;5.05;;
60700;SDS011;46541;49.894;10.886;2023-03-12T00:56:08;7.28;;;4.13;;
60700;SDS011;46541;49.894;10.886;2023-03-12T00:58:35;9.45;;;4.82;;
60700;SDS011;46541;49.894;10.886;2023-03-12T01:01:02;11.88;;;4.45;;
60700;SDS011;46541;49.894;10.886;2023-03-12T01:03:29;9.10;;;4.43;;
60700;SDS011;46541;49.894;10.886;2023-03-12T01:05:56;10.45;;;4.68;;
60700;SDS011;46541;49.894;10.886;2023-03-12T01:08:23;10.43;;;4.82;;
60700;SDS011;46541;49.894;10.886;2023-03-12T01:10:50;12.93;;;4.72;;
60700;SDS011;46541;49.894;10.886;2023-03-12T01:13:17;10.35;;;5.40;;
60700;SDS011;46541;49.894;10.886;2023-03-12T01:15:44;13.65;;;5.40;;
60700;SDS011;46541;49.894;10.886;2023-03-12T01:18:10;14.60;;;5.32;;
60700;SDS011;46541;49.894;10.886;2023-03-12T01:20:37;7.95;;;4.13;;
60700;SDS011;46541;49.894;10.886;2023-03-12T01:23:06;12.68;;;4.97;;
60700;SDS011;46541;49.894;10.886;2023-03-12T01:25:32;11.98;;;4.82;;
60700;SDS011;46541;49.894;10.886;2023-03-12T01:27:59;9.40;;;5.05;;
60700;SDS011;46541;49.894;10.886;2023-03-12T01:30:27;12.35;;;5.60;;
60700;SDS011;46541;49.894;10.886;2023-03-12T01:32:54;12.23;;;5.20;;
60700;SDS011;46541;49.894;10.886;2023-03-12T01:35:21;10.63;;;4.90;;
60700;SDS011;46541;49.894;10.886;2023-03-12T01:37:48;8.93;;;4.85;;
60700;SDS011;46541;49.894;10.886;2023-03-12T01:40:15;10.90;;;4.82;;
60700;SDS011;46541;49.894;10.886;2023-03-12T01:42:50;11.93;;;4.28;;
60700;SDS011;46541;49.894;10.886;2023-03-12T01:48:23;8.75;;;4.00;;
60700;SDS011;46541;49.894;10.886;2023-03-12T01:50:50;12.05;;;4.70;;
60700;SDS011;46541;49.894;10.886;2023-03-12T01:53:17;8.02;;;4.50;;
60700;SDS011;46541;49.894;10.886;2023-03-12T01:55:44;9.25;;;4.07;;
60700;SDS011;46541;49.894;10.886;2023-03-12T01:58:10;10.27;;;4.00;;
60700;SDS011;46541;49.894;10.886;2023-03-12T02:00:37;6.20;;;3.70;;
60700;SDS011;46541;49.894;10.886;2023-03-12T02:03:05;8.18;;;4.10;;
60700;SDS011;46541;49.894;10.886;2023-03-12T02:08:20;8.48;;;3.63;;
60700;SDS011;46541;49.894;10.886;2023-03-12T02:10:49;8.32;;;4.68;;
60700;SDS011;46541;49.894;10.886;2023-03-12T02:13:16;7.72;;;4.80;;
60700;SDS011;46541;49.894;10.886;2023-03-12T02:15:43;13.18;;;4.68;;
60700;SDS011;46541;49.894;10.886;2023-03-12T02:18:12;8.05;;;4.85;;
60700;SDS011;46541;49.894;10.886;2023-03-12T02:25:54;12.30;;;6.13;;
60700;SDS011;46541;49.894;10.886;2023-03-12T02:28:24;14.07;;;5.57;;
60700;SDS011;46541;49.894;10.886;2023-03-12T02:30:56;7.70;;;4.68;;
60700;SDS011;46541;49.894;10.886;2023-03-12T02:33:25;9.27;;;5.40;;
60700;SDS011;46541;49.894;10.886;2023-03-12T02:35:55;7.32;;;4.72;;
60700;SDS011;46541;49.894;10.886;2023-03-12T02:38:28;12.27;;;5.50;;
60700;SDS011;46541;49.894;10.886;2023-03-12T02:41:18;8.05;;;5.43;;
60700;SDS011;46541;49.894;10.886;2023-03-12T02:43:51;9.53;;;5.43;;
60700;SDS011;46541;49.894;10.886;2023-03-12T02:46:34;11.15;;;6.18;;
60700;SDS011;46541;49.894;10.886;2023-03-12T02:49:04;11.95;;;5.60;;
60700;SDS011;46541;49.894;10.886;2023-03-12T02:51:31;10.10;;;5.13;;
60700;SDS011;46541;49.894;10.886;2023-03-12T02:53:58;10.38;;;5.82;;
60700;SDS011;46541;49.894;10.886;2023-03-12T02:56:26;8.18;;;4.80;;
60700;SDS011;46541;49.894;10.886;2023-03-12T02:58:54;12.70;;;5.90;;
60700;SDS011;46541;49.894;10.886;2023-03-12T03:01:20;7.85;;;4.78;;
60700;SDS011;46541;49.894;10.886;2023-03-12T03:03:47;12.05;;;4.95;;
60700;SDS011;46541;49.894;10.886;2023-03-12T03:06:14;13.82;;;4.95;;
60700;SDS011;46541;49.894;10.886;2023-03-12T03:08:42;9.52;;;4.93;;
60700;SDS011;46541;49.894;10.886;2023-03-12T03:11:09;10.75;;;4.60;;
60700;SDS011;46541;49.894;10.886;2023-03-12T03:13:36;8.68;;;5.10;;
60700;SDS011;46541;49.894;10.886;2023-03-12T03:16:02;12.50;;;5.32;;
60700;SDS011;46541;49.894;10.886;2023-03-12T03:18:30;12.15;;;5.45;;
60700;SDS011;46541;49.894;10.886;2023-03-12T03:20:59;12.02;;;5.22;;
60700;SDS011;46541;49.894;10.886;2023-03-12T03:23:27;12.18;;;5.47;;
60700;SDS011;46541;49.894;10.886;2023-03-12T03:25:54;10.13;;;5.25;;
60700;SDS011;46541;49.894;10.886;2023-03-12T03:28:22;10.68;;;5.80;;
60700;SDS011;46541;49.894;10.886;2023-03-12T03:30:53;15.18;;;5.85;;
60700;SDS011;46541;49.894;10.886;2023-03-12T03:33:27;10.65;;;5.68;;
60700;SDS011;46541;49.894;10.886;2023-03-12T03:35:55;11.43;;;6.35;;
60700;SDS011;46541;49.894;10.886;2023-03-12T03:38:25;14.52;;;6.32;;
60700;SDS011;46541;49.894;10.886;2023-03-12T03:40:53;10.88;;;5.75;;
60700;SDS011;46541;49.894;10.886;2023-03-12T03:43:20;11.25;;;5.63;;
60700;SDS011;46541;49.894;10.886;2023-03-12T03:45:47;9.85;;;5.40;;
60700;SDS011;46541;49.894;10.886;2023-03-12T03:48:21;14.32;;;6.75;;
60700;SDS011;46541;49.894;10.886;2023-03-12T03:50:48;12.35;;;5.93;;
60700;SDS011;46541;49.894;10.886;2023-03-12T03:53:14;13.30;;;5.90;;
60700;SDS011;46541;49.894;10.886;2023-03-12T03:55:41;9.82;;;5.47;;
60700;SDS011;46541;49.894;10.886;2023-03-12T03:58:08;12.80;;;5.75;;
60700;SDS011;46541;49.894;10.886;2023-03-12T04:00:34;11.13;;;5.63;;
60700;SDS011;46541;49.894;10.886;2023-03-12T04:03:01;17.00;;;6.25;;
60700;SDS011;46541;49.894;10.886;2023-03-12T04:05:28;11.43;;;5.57;;
60700;SDS011;46541;49.894;10.886;2023-03-12T04:07:55;9.45;;;5.80;;
60700;SDS011;46541;49.894;10.886;2023-03-12T04:10:28;11.75;;;6.43;;
60700;SDS011;46541;49.894;10.886;2023-03-12T04:12:55;13.65;;;6.28;;
60700;SDS011;46541;49.894;10.886;2023-03-12T04:15:22;9.60;;;5.82;;
60700;SDS011;46541;49.894;10.886;2023-03-12T04:17:49;13.48;;;6.00;;
60700;SDS011;46541;49.894;10.886;2023-03-12T04:20:16;9.23;;;5.80;;
60700;SDS011;46541;49.894;10.886;2023-03-12T04:22:43;12.27;;;5.90;;
60700;SDS011;46541;49.894;10.886;2023-03-12T04:25:09;13.25;;;6.28;;
60700;SDS011;46541;49.894;10.886;2023-03-12T04:27:37;12.40;;;6.28;;
60700;SDS011;46541;49.894;10.886;2023-03-12T04:30:03;11.45;;;6.07;;
60700;SDS011;46541;49.894;10.886;2023-03-12T04:32:30;15.55;;;8.10;;
60700;SDS011;46541;49.894;10.886;2023-03-12T04:34:57;11.65;;;6.60;;
60700;SDS011;46541;49.894;10.886;2023-03-12T04:37:24;12.38;;;6.78;;
60700;SDS011;46541;49.894;10.886;2023-03-12T04:39:51;14.02;;;6.15;;
60700;SDS011;46541;49.894;10.886;2023-03-12T04:42:18;9.95;;;4.82;;
60700;SDS011;46541;49.894;10.886;2023-03-12T04:44:45;11.60;;;6.78;;
60700;SDS011;46541;49.894;10.886;2023-03-12T04:47:11;10.63;;;5.93;;
60700;SDS011;46541;49.894;10.886;2023-03-12T04:49:38;10.85;;;5.97;;
60700;SDS011;46541;49.894;10.886;2023-03-12T04:52:05;10.38;;;5.90;;
60700;SDS011;46541;49.894;10.886;2023-03-12T04:54:32;8.93;;;5.45;;
60700;SDS011;46541;49.894;10.886;2023-03-12T04:57:00;11.00;;;6.18;;
60700;SDS011;46541;49.894;10.886;2023-03-12T04:59:26;12.80;;;7.60;;
60700;SDS011;46541;49.894;10.886;2023-03-12T05:01:53;13.27;;;6.85;;
60700;SDS011;46541;49.894;10.886;2023-03-12T05:04:20;17.35;;;8.82;;
60700;SDS011;46541;49.894;10.886;2023-03-12T05:06:46;15.63;;;6.60;;
60700;SDS011;46541;49.894;10.886;2023-03-12T05:09:13;13.55;;;6.70;;
60700;SDS011;46541;49.894;10.886;2023-03-12T05:11:40;12.63;;;6.50;;
60700;SDS011;46541;49.894;10.886;2023-03-12T05:14:07;13.93;;;6.20;;
60700;SDS011;46541;49.894;10.886;2023-03-12T05:16:36;9.75;;;6.55;;
60700;SDS011;46541;49.894;10.886;2023-03-12T05:19:03;14.45;;;6.75;;
60700;SDS011;46541;49.894;10.886;2023-03-12T05:21:30;12.25;;;5.90;;
60700;SDS011;46541;49.894;10.886;2023-03-12T05:23:57;11.55;;;6.68;;
60700;SDS011;46541;49.894;10.886;2023-03-12T05:26:28;10.93;;;5.93;;
60700;SDS011;46541;49.894;10.886;2023-03-12T05:28:57;8.57;;;5.53;;
60700;SDS011;46541;49.894;10.886;2023-03-12T05:31:25;11.15;;;6.70;;
60700;SDS011;46541;49.894;10.886;2023-03-12T05:33:53;11.55;;;7.13;;
60700;SDS011;46541;49.894;10.886;2023-03-12T05:36:20;11.10;;;7.03;;
60700;SDS011;46541;49.894;10.886;2023-03-12T05:38:46;13.18;;;7.72;;
60700;SDS011;46541;49.894;10.886;2023-03-12T05:41:17;17.25;;;9.55;;
60700;SDS011;46541;49.894;10.886;2023-03-12T05:43:46;19.98;;;11.30;;
60700;SDS011;46541;49.894;10.886;2023-03-12T05:46:13;15.30;;;7.07;;
60700;SDS011;46541;49.894;10.886;2023-03-12T05:48:40;10.55;;;6.45;;
60700;SDS011;46541;49.894;10.886;2023-03-12T05:51:07;19.75;;;7.38;;
60700;SDS011;46541;49.894;10.886;2023-03-12T05:53:34;13.00;;;6.57;;
60700;SDS011;46541;49.894;10.886;2023-03-12T05:56:05;11.70;;;5.90;;
60700;SDS011;46541;49.894;10.886;2023-03-12T05:58:34;12.43;;;6.38;;
60700;SDS011;46541;49.894;10.886;2023-03-12T06:01:01;18.38;;;6.10;;
60700;SDS011;46541;49.894;10.886;2023-03-12T06:03:27;11.95;;;6.07;;
60700;SDS011;46541;49.894;10.886;2023-03-12T06:05:54;16.75;;;6.72;;
60700;SDS011;46541;49.894;10.886;2023-03-12T06:08:23;13.60;;;6.53;;
60700;SDS011;46541;49.894;10.886;2023-03-12T06:10:50;10.90;;;6.13;;
60700;SDS011;46541;49.894;10.886;2023-03-12T06:13:20;12.57;;;5.60;;
60700;SDS011;46541;49.894;10.886;2023-03-12T06:15:48;11.30;;;6.55;;
60700;SDS011;46541;49.894;10.886;2023-03-12T06:18:15;11.65;;;6.18;;
60700;SDS011;46541;49.894;10.886;2023-03-12T06:20:42;12.88;;;5.95;;
60700;SDS011;46541;49.894;10.886;2023-03-12T06:23:08;12.63;;;5.85;;
60700;SDS011;46541;49.894;10.886;2023-03-12T06:25:36;9.07;;;5.22;;
60700;SDS011;46541;49.894;10.886;2023-03-12T06:28:03;12.25;;;5.90;;
60700;SDS011;46541;49.894;10.886;2023-03-12T06:30:30;11.45;;;4.97;;
60700;SDS011;46541;49.894;10.886;2023-03-12T06:32:57;13.45;;;5.90;;
60700;SDS011;46541;49.894;10.886;2023-03-12T06:35:23;8.82;;;5.30;;
60700;SDS011;46541;49.894;10.886;2023-03-12T06:37:50;11.45;;;5.65;;
60700;SDS011;46541;49.894;10.886;2023-03-12T06:40:17;10.98;;;5.65;;
60700;SDS011;46541;49.894;10.886;2023-03-12T06:42:43;14.95;;;5.90;;
60700;SDS011;46541;49.894;10.886;2023-03-12T06:45:10;9.77;;;5.55;;
60700;SDS011;46541;49.894;10.886;2023-03-12T06:47:37;14.23;;;6.18;;
60700;SDS011;46541;49.894;10.886;2023-03-12T06:50:04;11.02;;;5.80;;
60700;SDS011;46541;49.894;10.886;2023-03-12T06:52:31;11.15;;;5.53;;
60700;SDS011;46541;49.894;10.886;2023-03-12T06:54:58;9.65;;;5.68;;
60700;SDS011;46541;49.894;10.886;2023-03-12T06:57:24;9.50;;;5.50;;
60700;SDS011;46541;49.894;10.886;2023-03-12T06:59:51;9.65;;;5.13;;
60700;SDS011;46541;49.894;10.886;2023-03-12T07:02:18;10.00;;;5.78;;
60700;SDS011;46541;49.894;10.886;2023-03-12T07:04:44;9.13;;;5.93;;
60700;SDS011;46541;49.894;10.886;2023-03-12T07:07:11;10.40;;;6.20;;
60700;SDS011;46541;49.894;10.886;2023-03-12T07:09:38;13.73;;;6.25;;
60700;SDS011;46541;49.894;10.886;2023-03-12T07:12:05;11.35;;;5.50;;
60700;SDS011;46541;49.894;10.886;2023-03-12T07:14:32;9.45;;;5.72;;
60700;SDS011;46541;49.894;10.886;2023-03-12T07:16:59;9.13;;;5.78;;
60700;SDS011;46541;49.894;10.886;2023-03-12T07:19:27;10.38;;;5.88;;
60700;SDS011;46541;49.894;10.886;2023-03-12T07:21:55;8.20;;;4.78;;
60700;SDS011;46541;49.894;10.886;2023-03-12T07:24:22;12.55;;;5.70;;
60700;SDS011;46541;49.894;10.886;2023-03-12T07:26:49;9.15;;;5.70;;
60700;SDS011;46541;49.894;10.886;2023-03-12T07:29:16;9.38;;;4.63;;
60700;SDS011;46541;49.894;10.886;2023-03-12T07:31:42;12.80;;;5.50;;
60700;SDS011;46541;49.894;10.886;2023-03-12T07:34:09;9.13;;;4.88;;
60700;SDS011;46541;49.894;10.886;2023-03-12T07:36:36;19.17;;;6.00;;
60700;SDS011;46541;49.894;10.886;2023-03-12T07:39:03;11.57;;;5.80;;
60700;SDS011;46541;49.894;10.886;2023-03-12T07:41:30;8.63;;;5.38;;
60700;SDS011;46541;49.894;10.886;2023-03-12T07:43:56;13.98;;;5.38;;
60700;SDS011;46541;49.894;10.886;2023-03-12T07:46:23;10.10;;;5.05;;
60700;SDS011;46541;49.894;10.886;2023-03-12T07:48:50;10.00;;;5.35;;
60700;SDS011;46541;49.894;10.886;2023-03-12T07:51:17;11.70;;;6.05;;
60700;SDS011;46541;49.894;10.886;2023-03-12T07:53:43;8.15;;;4.88;;
60700;SDS011;46541;49.894;10.886;2023-03-12T07:56:10;10.85;;;5.32;;
60700;SDS011;46541;49.894;10.886;2023-03-12T07:58:37;8.70;;;4.93;;
60700;SDS011;46541;49.894;10.886;2023-03-12T08:01:04;10.43;;;5.78;;
60700;SDS011;46541;49.894;10.886;2023-03-12T08:03:32;9.75;;;5.38;;
60700;SDS011;46541;49.894;10.886;2023-03-12T08:06:00;10.73;;;4.97;;
60700;SDS011;46541;49.894;10.886;2023-03-12T08:08:28;7.63;;;4.88;;
60700;SDS011;46541;49.894;10.886;2023-03-12T08:10:57;12.20;;;5.22;;
60700;SDS011;46541;49.894;10.886;2023-03-12T08:13:25;7.55;;;4.78;;
60700;SDS011;46541;49.894;10.886;2023-03-12T08:15:52;17.55;;;6.30;;
60700;SDS011;46541;49.894;10.886;2023-03-12T08:18:19;11.40;;;5.72;;
60700;SDS011;46541;49.894;10.886;2023-03-12T08:20:50;9.95;;;4.72;;
60700;SDS011;46541;49.894;10.886;2023-03-12T08:23:19;9.93;;;4.93;;
60700;SDS011;46541;49.894;10.886;2023-03-12T08:25:47;8.45;;;4.57;;
60700;SDS011;46541;49.894;10.886;2023-03-12T08:28:15;10.35;;;5.40;;
60700;SDS011;46541;49.894;10.886;2023-03-12T08:30:47;14.18;;;6.20;;
60700;SDS011;46541;49.894;10.886;2023-03-12T08:33:15;10.18;;;5.45;;
60700;SDS011;46541;49.894;10.886;2023-03-12T08:35:42;10.82;;;5.78;;
60700;SDS011;46541;49.894;10.886;2023-03-12T08:38:09;13.07;;;5.82;;
60700;SDS011;46541;49.894;10.886;2023-03-12T08:40:36;12.07;;;7.05;;
60700;SDS011;46541;49.894;10.886;2023-03-12T08:43:03;9.90;;;5.82;;
60700;SDS011;46541;49.894;10.886;2023-03-12T08:45:30;17.83;;;8.88;;
60700;SDS011;46541;49.894;10.886;2023-03-12T08:47:57;12.38;;;5.63;;
60700;SDS011;46541;49.894;10.886;2023-03-12T08:50:24;31.23;;;11.65;;
60700;SDS011;46541;49.894;10.886;2023-03-12T08:52:51;15.10;;;6.47;;
60700;SDS011;46541;49.894;10.886;2023-03-12T08:55:18;10.35;;;5.60;;
60700;SDS011;46541;49.894;10.886;2023-03-12T08:57:44;11.50;;;5.60;;
60700;SDS011;46541;49.894;10.886;2023-03-12T09:00:11;13.38;;;6.40;;
60700;SDS011;46541;49.894;10.886;2023-03-12T09:02:44;14.98;;;7.55;;
60700;SDS011;46541;49.894;10.886;2023-03-12T09:05:11;14.93;;;7.93;;
60700;SDS011;46541;49.894;10.886;2023-03-12T09:07:39;11.25;;;5.35;;
60700;SDS011;46541;49.894;10.886;2023-03-12T09:10:06;11.57;;;5.20;;
60700;SDS011;46541;49.894;10.886;2023-03-12T09:12:33;9.70;;;5.28;;
60700;SDS011;46541;49.894;10.886;2023-03-12T09:15:00;12.23;;;6.80;;
60700;SDS011;46541;49.894;10.886;2023-03-12T09:17:29;10.90;;;4.80;;
60700;SDS011;46541;49.894;10.886;2023-03-12T09:19:55;12.52;;;6.85;;
60700;SDS011;46541;49.894;10.886;2023-03-12T09:22:22;12.27;;;5.57;;
60700;SDS011;46541;49.894;10.886;2023-03-12T09:24:49;10.50;;;5.43;;
60700;SDS011;46541;49.894;10.886;2023-03-12T09:27:16;14.18;;;6.47;;
60700;SDS011;46541;49.894;10.886;2023-03-12T09:29:43;9.23;;;4.97;;
60700;SDS011;46541;49.894;10.886;2023-03-12T09:32:24;7.55;;;3.80;;
60700;SDS011;46541;49.894;10.886;2023-03-12T09:34:52;16.92;;;7.95;;
60700;SDS011;46541;49.894;10.886;2023-03-12T09:37:19;10.93;;;5.78;;
60700;SDS011;46541;49.894;10.886;2023-03-12T09:39:49;8.75;;;4.72;;
60700;SDS011;46541;49.894;10.886;2023-03-12T09:42:21;10.55;;;4.43;;
60700;SDS011;46541;49.894;10.886;2023-03-12T09:44:49;11.60;;;5.22;;
60700;SDS011;46541;49.894;10.886;2023-03-12T09:47:30;9.85;;;4.30;;
60700;SDS011;46541;49.894;10.886;2023-03-12T09:52:34;9.55;;;4.68;;
60700;SDS011;46541;49.894;10.886;2023-03-12T09:55:14;8.25;;;5.07;;
60700;SDS011;46541;49.894;10.886;2023-03-12T09:57:43;12.52;;;6.95;;
60700;SDS011;46541;49.894;10.886;2023-03-12T10:00:16;9.40;;;4.35;;
60700;SDS011;46541;49.894;10.886;2023-03-12T10:13:49;6.35;;;4.03;;
60700;SDS011;46541;49.894;10.886;2023-03-12T10:18:57;6.28;;;3.42;;
60700;SDS011;46541;49.894;10.886;2023-03-12T10:21:57;12.23;;;6.00;;
60700;SDS011;46541;49.894;10.886;2023-03-12T10:25:03;9.75;;;5.20;;
60700;SDS011;46541;49.894;10.886;2023-03-12T10:27:27;11.50;;;4.93;;
60700;SDS011;46541;49.894;10.886;2023-03-12T10:29:55;10.05;;;4.95;;
60700;SDS011;46541;49.894;10.886;2023-03-12T10:32:36;4.93;;;3.53;;
60700;SDS011;46541;49.894;10.886;2023-03-12T10:35:15;9.20;;;5.40;;
60700;SDS011;46541;49.894;10.886;2023-03-12T10:40:20;7.30;;;3.72;;
60700;SDS011;46541;49.894;10.886;2023-03-12T10:42:49;8.73;;;3.22;;
60700;SDS011;46541;49.894;10.886;2023-03-12T10:47:52;5.28;;;3.20;;
60700;SDS011;46541;49.894;10.886;2023-03-12T10:50:26;5.32;;;3.65;;
60700;SDS011;46541;49.894;10.886;2023-03-12T10:58:30;8.18;;;4.80;;
60700;SDS011;46541;49.894;10.886;2023-03-12T11:00:59;13.05;;;5.13;;
60700;SDS011;46541;49.894;10.886;2023-03-12T11:03:28;7.22;;;3.75;;
60700;SDS011;46541;49.894;10.886;2023-03-12T11:05:55;9.75;;;4.60;;
60700;SDS011;46541;49.894;10.886;2023-03-12T11:08:26;8.43;;;3.60;;
60700;SDS011;46541;49.894;10.886;2023-03-12T11:10:56;8.90;;;3.88;;
60700;SDS011;46541;49.894;10.886;2023-03-12T11:13:29;8.00;;;3.90;;
60700;SDS011;46541;49.894;10.886;2023-03-12T11:15:58;9.02;;;4.47;;
60700;SDS011;46541;49.894;10.886;2023-03-12T11:19:02;8.88;;;4.85;;
60700;SDS011;46541;49.894;10.886;2023-03-12T11:21:30;9.75;;;4.03;;
60700;SDS011;46541;49.894;10.886;2023-03-12T11:24:03;11.30;;;5.70;;
60700;SDS011;46541;49.894;10.886;2023-03-12T11:26:55;7.80;;;3.72;;
60700;SDS011;46541;49.894;10.886;2023-03-12T11:29:34;8.23;;;3.75;;
60700;SDS011;46541;49.894;10.886;2023-03-12T11:34:56;9.23;;;3.88;;
60700;SDS011;46541;49.894;10.886;2023-03-12T11:51:56;6.95;;;3.60;;
60700;SDS011;46541;49.894;10.886;2023-03-12T11:57:34;7.72;;;3.80;;
60700;SDS011;46541;49.894;10.886;2023-03-12T12:00:24;8.18;;;4.05;;
60700;SDS011;46541;49.894;10.886;2023-03-12T12:16:35;8.98;;;4.00;;
60700;SDS011;46541;49.894;10.886;2023-03-12T12:22:08;11.85;;;4.82;;
60700;SDS011;46541;49.894;10.886;2023-03-12T12:27:29;13.80;;;5.68;;
60700;SDS011;46541;49.894;10.886;2023-03-12T12:35:34;8.57;;;4.75;;
60700;SDS011;46541;49.894;10.886;2023-03-12T12:46:10;17.58;;;7.63;;
60700;SDS011;46541;49.894;10.886;2023-03-12T12:48:43;16.92;;;7.25;;
60700;SDS011;46541;49.894;10.886;2023-03-12T12:51:24;14.90;;;9.65;;
60700;SDS011;46541;49.894;10.886;2023-03-12T12:53:57;13.20;;;7.07;;
60700;SDS011;46541;49.894;10.886;2023-03-12T13:02:12;10.25;;;6.32;;
60700;SDS011;46541;49.894;10.886;2023-03-12T13:04:42;10.77;;;6.90;;
60700;SDS011;46541;49.894;10.886;2023-03-12T13:12:14;14.73;;;7.72;;
60700;SDS011;46541;49.894;10.886;2023-03-12T13:14:42;14.45;;;7.45;;
60700;SDS011;46541;49.894;10.886;2023-03-12T13:28:55;14.10;;;9.00;;
60700;SDS011;46541;49.894;10.886;2023-03-12T13:31:38;11.68;;;6.55;;
60700;SDS011;46541;49.894;10.886;2023-03-12T13:36:46;16.48;;;8.00;;
60700;SDS011;46541;49.894;10.886;2023-03-12T13:49:25;13.60;;;6.70;;
60700;SDS011;46541;49.894;10.886;2023-03-12T13:54:33;14.93;;;7.28;;
60700;SDS011;46541;49.894;10.886;2023-03-12T13:57:11;13.80;;;7.00;;
60700;SDS011;46541;49.894;10.886;2023-03-12T13:59:50;20.23;;;11.15;;
60700;SDS011;46541;49.894;10.886;2023-03-12T14:02:22;12.82;;;7.40;;
60700;SDS011;46541;49.894;10.886;2023-03-12T14:05:00;18.88;;;8.77;;
60700;SDS011;46541;49.894;10.886;2023-03-12T14:18:58;13.20;;;7.18;;
60700;SDS011;46541;49.894;10.886;2023-03-12T14:21:26;14.40;;;7.78;;
60700;SDS011;46541;49.894;10.886;2023-03-12T14:23:59;15.10;;;7.75;;
60700;SDS011;46541;49.894;10.886;2023-03-12T14:26:27;11.15;;;6.78;;
60700;SDS011;46541;49.894;10.886;2023-03-12T14:31:34;14.25;;;7.38;;
60700;SDS011;46541;49.894;10.886;2023-03-12T14:34:05;10.02;;;6.57;;
60700;SDS011;46541;49.894;10.886;2023-03-12T14:41:59;15.55;;;7.90;;
60700;SDS011;46541;49.894;10.886;2023-03-12T14:44:30;12.70;;;8.10;;
60700;SDS011;46541;49.894;10.886;2023-03-12T14:46:59;18.00;;;9.05;;
60700;SDS011;46541;49.894;10.886;2023-03-12T14:49:28;15.52;;;10.00;;
60700;SDS011;46541;49.894;10.886;2023-03-12T14:51:56;13.57;;;7.53;;
60700;SDS011;46541;49.894;10.886;2023-03-12T14:54:24;11.73;;;7.05;;
60700;SDS011;46541;49.894;10.886;2023-03-12T14:56:53;12.48;;;7.38;;
60700;SDS011;46541;49.894;10.886;2023-03-12T14:59:24;10.68;;;7.13;;
60700;SDS011;46541;49.894;10.886;2023-03-12T15:02:01;10.05;;;6.85;;
60700;SDS011;46541;49.894;10.886;2023-03-12T15:04:37;13.00;;;7.68;;
60700;SDS011;46541;49.894;10.886;2023-03-12T15:07:04;14.20;;;7.93;;
60700;SDS011;46541;49.894;10.886;2023-03-12T15:09:34;10.80;;;7.40;;
60700;SDS011;46541;49.894;10.886;2023-03-12T15:12:05;13.73;;;7.10;;
60700;SDS011;46541;49.894;10.886;2023-03-12T15:14:42;10.07;;;6.05;;
60700;SDS011;46541;49.894;10.886;2023-03-12T15:17:16;12.25;;;7.97;;
60700;SDS011;46541;49.894;10.886;2023-03-12T15:19:45;11.80;;;7.28;;
60700;SDS011;46541;49.894;10.886;2023-03-12T15:22:14;10.95;;;7.40;;
60700;SDS011;46541;49.894;10.886;2023-03-12T15:24:46;11.25;;;7.68;;
60700;SDS011;46541;49.894;10.886;2023-03-12T15:29:55;12.07;;;6.85;;
60700;SDS011;46541;49.894;10.886;2023-03-12T15:32:24;10.02;;;6.18;;
60700;SDS011;46541;49.894;10.886;2023-03-12T15:34:52;9.32;;;6.35;;
60700;SDS011;46541;49.894;10.886;2023-03-12T15:37:38;10.30;;;6.93;;
60700;SDS011;46541;49.894;10.886;2023-03-12T15:40:15;9.73;;;6.70;;
60700;SDS011;46541;49.894;10.886;2023-03-12T15:42:47;13.50;;;7.50;;
60700;SDS011;46541;49.894;10.886;2023-03-12T15:45:18;12.27;;;7.53;;
60700;SDS011;46541;49.894;10.886;2023-03-12T15:47:49;10.70;;;6.90;;
60700;SDS011;46541;49.894;10.886;2023-03-12T15:50:19;14.70;;;7.53;;
60700;SDS011;46541;49.894;10.886;2023-03-12T15:53:02;9.00;;;6.43;;
60700;SDS011;46541;49.894;10.886;2023-03-12T15:55:41;14.02;;;7.43;;
60700;SDS011;46541;49.894;10.886;2023-03-12T16:01:14;9.43;;;6.90;;
60700;SDS011;46541;49.894;10.886;2023-03-12T16:03:43;14.93;;;7.30;;
60700;SDS011;46541;49.894;10.886;2023-03-12T16:06:15;11.68;;;7.72;;
60700;SDS011;46541;49.894;10.886;2023-03-12T16:08:47;9.30;;;6.40;;
60700;SDS011;46541;49.894;10.886;2023-03-12T16:11:17;16.23;;;9.82;;
60700;SDS011;46541;49.894;10.886;2023-03-12T16:13:47;12.90;;;8.25;;
60700;SDS011;46541;49.894;10.886;2023-03-12T16:16:15;53.78;;;22.17;;
60700;SDS011;46541;49.894;10.886;2023-03-12T16:18:43;30.45;;;14.65;;
60700;SDS011;46541;49.894;10.886;2023-03-12T16:21:09;22.10;;;11.70;;
60700;SDS011;46541;49.894;10.886;2023-03-12T16:23:36;18.17;;;10.23;;
60700;SDS011;46541;49.894;10.886;2023-03-12T16:26:03;16.30;;;9.93;;
60700;SDS011;46541;49.894;10.886;2023-03-12T16:28:32;16.00;;;8.55;;
60700;SDS011;46541;49.894;10.886;2023-03-12T16:31:00;25.10;;;17.45;;
60700;SDS011;46541;49.894;10.886;2023-03-12T16:33:28;13.85;;;9.75;;
60700;SDS011;46541;49.894;10.886;2023-03-12T16:35:54;16.67;;;8.48;;
60700;SDS011;46541;49.894;10.886;2023-03-12T16:38:22;18.77;;;8.90;;
60700;SDS011;46541;49.894;10.886;2023-03-12T16:40:49;13.75;;;6.25;;
60700;SDS011;46541;49.894;10.886;2023-03-12T16:43:18;13.82;;;8.50;;
60700;SDS011;46541;49.894;10.886;2023-03-12T16:45:47;16.88;;;10.00;;
60700;SDS011;46541;49.894;10.886;2023-03-12T16:48:17;20.85;;;9.73;;
60700;SDS011;46541;49.894;10.886;2023-03-12T16:50:49;18.55;;;9.23;;
60700;SDS011;46541;49.894;10.886;2023-03-12T16:53:17;16.85;;;6.93;;
60700;SDS011;46541;49.894;10.886;2023-03-12T16:55:46;11.73;;;6.40;;
60700;SDS011;46541;49.894;10.886;2023-03-12T16:58:19;11.90;;;6.30;;
60700;SDS011;46541;49.894;10.886;2023-03-12T17:00:48;12.63;;;6.70;;
60700;SDS011;46541;49.894;10.886;2023-03-12T17:03:17;19.15;;;9.68;;
60700;SDS011;46541;49.894;10.886;2023-03-12T17:05:44;15.07;;;7.25;;
60700;SDS011;46541;49.894;10.886;2023-03-12T17:08:12;15.88;;;8.15;;
60700;SDS011;46541;49.894;10.886;2023-03-12T17:10:39;15.23;;;8.23;;
60700;SDS011;46541;49.894;10.886;2023-03-12T17:13:06;20.45;;;10.20;;